Time;durP1;ratioP1;P1;durP2;ratioP2;P2;SDS_P1;SDS_P2;PMS_P1;PMS_P2;Temp;Humidity;BMP_temperature;BMP_pressure;BME280_temperature;BME280_humidity;BME280_pressure;Samples;Min_cycle;Max_cycle;Signal;HPM_P1;HPM_P2
2023/09/04 00:02:06;;;;;;;9.40;7.38;;;;;;;13.32;99.33;102643.94;5027159;28;20033;-88
2023/09/04 00:04:31;;;;;;;9.10;5.93;;;;;;;13.30;98.96;102643.16;4995005;28;20084;-88
2023/09/04 00:06:57;;;;;;;8.77;6.07;;;;;;;13.28;99.28;102646.81;4988052;28;20504;-88
2023/09/04 00:09:22;;;;;;;9.07;6.15;;;;;;;13.25;99.46;102641.53;4975874;28;20040;-88
2023/09/04 00:11:48;;;;;;;10.55;6.70;;;;;;;13.26;99.43;102640.56;5007160;28;20041;-88
2023/09/04 00:14:15;;;;;;;11.77;7.03;;;;;;;13.22;100.00;102629.88;5004599;28;20867;-87
2023/09/04 00:16:42;;;;;;;8.18;6.38;;;;;;;13.23;100.00;102632.53;5010277;28;20033;-88
2023/09/04 00:19:07;;;;;;;7.28;5.53;;;;;;;13.20;99.05;102634.53;4994790;28;20033;-87
2023/09/04 00:21:32;;;;;;;7.60;5.63;;;;;;;13.14;99.21;102616.59;5013808;28;20112;-88
2023/09/04 00:23:58;;;;;;;7.05;5.38;;;;;;;13.12;99.02;102620.41;5005746;28;20054;-88
2023/09/04 00:26:23;;;;;;;8.75;5.63;;;;;;;13.11;98.78;102627.72;4990891;28;20025;-88
2023/09/04 00:28:50;;;;;;;7.95;5.82;;;;;;;13.11;98.98;102622.25;5000940;28;20091;-88
2023/09/04 00:31:15;;;;;;;9.68;7.07;;;;;;;13.01;99.07;102618.25;5028163;28;20057;-88
2023/09/04 00:33:41;;;;;;;13.00;7.32;;;;;;;13.02;99.83;102623.63;4994047;28;20037;-87
2023/09/04 00:36:06;;;;;;;9.48;6.18;;;;;;;13.01;99.88;102629.19;5020762;28;20042;-88
2023/09/04 00:38:32;;;;;;;9.90;7.22;;;;;;;12.99;100.00;102631.09;4985337;28;20046;-88
2023/09/04 00:40:57;;;;;;;9.60;7.38;;;;;;;12.97;100.00;102633.94;5019615;28;20030;-88
2023/09/04 00:43:23;;;;;;;11.00;7.43;;;;;;;12.88;100.00;102620.75;5022717;28;20057;-88
2023/09/04 00:45:48;;;;;;;8.35;6.10;;;;;;;12.90;100.00;102627.00;5028188;28;20041;-87
2023/09/04 00:48:14;;;;;;;8.63;6.32;;;;;;;12.88;100.00;102626.22;5027955;28;20071;-87
2023/09/04 00:50:42;;;;;;;9.93;6.90;;;;;;;12.81;100.00;102626.63;4994019;28;20029;-88
2023/09/04 00:53:09;;;;;;;7.45;6.10;;;;;;;12.83;99.70;102628.31;5015076;28;20038;-87
2023/09/04 00:55:37;;;;;;;9.23;5.47;;;;;;;12.82;99.46;102634.72;4990794;28;20068;-88
2023/09/04 00:58:03;;;;;;;6.82;5.25;;;;;;;12.77;99.44;102626.78;4975086;28;20417;-87
2023/09/04 01:00:29;;;;;;;8.43;5.30;;;;;;;12.78;99.17;102627.69;4974683;28;20045;-88
2023/09/04 01:02:56;;;;;;;9.38;6.22;;;;;;;12.76;100.00;102635.06;4996906;28;20025;-88
2023/09/04 01:05:21;;;;;;;7.60;5.18;;;;;;;12.72;99.79;102630.72;5011122;28;20052;-87
2023/09/04 01:07:48;;;;;;;7.32;5.68;;;;;;;12.67;100.00;102627.34;4993710;28;20395;-88
2023/09/04 01:10:14;;;;;;;7.40;5.60;;;;;;;12.63;100.00;102623.00;4994163;28;20480;-88
2023/09/04 01:12:55;;;;;;;9.45;6.65;;;;;;;12.60;100.00;102624.06;5010626;28;20167;-88
2023/09/04 01:15:20;;;;;;;10.20;6.95;;;;;;;12.55;100.00;102617.97;4995038;28;20033;-88
2023/09/04 01:17:47;;;;;;;11.75;7.00;;;;;;;12.56;100.00;102627.06;4994218;28;20365;-88
2023/09/04 01:20:27;;;;;;;10.43;6.88;;;;;;;12.51;100.00;102617.25;4995038;28;20030;-88
2023/09/04 01:22:53;;;;;;;6.38;5.47;;;;;;;12.34;100.00;102595.41;5030213;28;20370;-88
2023/09/04 01:25:20;;;;;;;10.48;5.90;;;;;;;12.43;100.00;102622.22;4997150;28;20041;-88
2023/09/04 01:27:57;;;;;;;8.18;6.50;;;;;;;12.45;100.00;102633.94;4996127;28;20045;-87
2023/09/04 01:30:53;;;;;;;8.52;6.15;;;;;;;12.39;100.00;102617.00;4994995;28;20157;-88
2023/09/04 01:33:27;;;;;;;8.27;5.80;;;;;;;12.35;100.00;102624.44;5011614;28;20489;-87
2023/09/04 01:35:54;;;;;;;8.98;6.47;;;;;;;12.32;100.00;102616.44;5012288;28;20393;-88
2023/09/04 01:38:20;;;;;;;10.98;6.75;;;;;;;12.30;100.00;102626.53;4991007;28;20489;-88
2023/09/04 01:40:51;;;;;;;8.50;6.03;;;;;;;12.28;100.00;102627.59;4991237;28;20512;-87
2023/09/04 01:43:16;;;;;;;9.93;5.88;;;;;;;12.10;100.00;102608.47;5003041;28;20041;-88
2023/09/04 01:45:42;;;;;;;9.65;6.28;;;;;;;12.22;100.00;102628.78;5016092;28;20558;-87
2023/09/04 01:48:07;;;;;;;10.73;5.93;;;;;;;12.19;100.00;102615.28;4998254;28;20045;-88
2023/09/04 01:50:33;;;;;;;6.65;5.55;;;;;;;12.13;100.00;102608.31;5015369;28;20029;-87
2023/09/04 01:52:59;;;;;;;11.25;6.82;;;;;;;12.16;100.00;102610.88;4998248;28;20163;-87
2023/09/04 01:55:25;;;;;;;9.52;6.72;;;;;;;12.14;100.00;102614.66;5032424;28;20116;-87
2023/09/04 01:57:50;;;;;;;10.90;7.93;;;;;;;12.13;100.00;102608.31;4998014;28;20445;-87
2023/09/04 02:00:16;;;;;;;13.80;7.50;;;;;;;12.14;100.00;102620.09;4995533;28;20108;-88
2023/09/04 02:02:41;;;;;;;10.77;7.07;;;;;;;12.12;100.00;102613.81;5013525;28;20046;-88
2023/09/04 02:05:07;;;;;;;10.20;6.80;;;;;;;12.07;100.00;102605.88;4978762;28;20079;-87
2023/09/04 02:07:32;;;;;;;11.00;8.15;;;;;;;12.12;100.00;102613.81;5030977;28;20034;-88
2023/09/04 02:09:57;;;;;;;10.13;6.95;;;;;;;12.06;100.00;102609.56;4998213;28;20036;-88
2023/09/04 02:12:23;;;;;;;12.57;7.53;;;;;;;12.04;100.00;102606.03;5014856;28;20029;-88
2023/09/04 02:14:52;;;;;;;10.57;7.40;;;;;;;12.06;100.00;102609.56;5014905;28;20038;-88
2023/09/04 02:17:17;;;;;;;13.52;9.80;;;;;;;12.01;100.00;102598.00;5013800;28;20064;-88
2023/09/04 02:19:42;;;;;;;11.65;7.78;;;;;;;11.94;100.00;102593.84;5014315;28;20119;-88
2023/09/04 02:22:08;;;;;;;14.45;8.13;;;;;;;11.93;100.00;102597.50;4999515;28;20057;-88
2023/09/04 02:24:34;;;;;;;10.20;7.43;;;;;;;11.98;100.00;102607.25;5012822;28;20037;-87
2023/09/04 02:27:00;;;;;;;12.40;8.63;;;;;;;11.97;100.00;102599.13;5011327;28;20437;-88
2023/09/04 02:29:25;;;;;;;12.23;8.88;;;;;;;11.89;100.00;102577.69;4994086;28;20029;-87
2023/09/04 02:31:52;;;;;;;13.15;8.80;;;;;;;11.96;100.00;102591.91;5011164;28;20069;-88
2023/09/04 02:34:18;;;;;;;15.20;8.70;;;;;;;11.95;100.00;102588.28;4978720;28;20504;-88
2023/09/04 02:36:43;;;;;;;12.25;8.20;;;;;;;11.80;100.00;102564.50;4995076;28;20144;-88
2023/09/04 02:39:08;;;;;;;13.02;7.60;;;;;;;11.89;100.00;102584.97;4997430;28;20037;-88
2023/09/04 02:41:34;;;;;;;11.77;8.07;;;;;;;11.90;100.00;102593.09;4982934;28;20037;-88
2023/09/04 02:43:59;;;;;;;15.75;7.88;;;;;;;11.87;100.00;102592.38;5030117;28;20104;-88
2023/09/04 02:46:24;;;;;;;10.82;7.53;;;;;;;11.79;100.00;102578.19;4998107;28;20037;-88
2023/09/04 02:48:50;;;;;;;13.48;8.35;;;;;;;11.78;100.00;102587.34;5014130;28;20117;-88
2023/09/04 02:51:15;;;;;;;10.85;7.80;;;;;;;11.75;100.00;102592.00;5014301;28;20045;-88
2023/09/04 02:53:41;;;;;;;14.70;9.35;;;;;;;11.72;100.00;102588.53;4997347;28;20048;-89
2023/09/04 02:56:06;;;;;;;12.68;8.32;;;;;;;11.65;100.00;102567.97;4996162;28;20436;-88
2023/09/04 02:58:32;;;;;;;16.15;9.55;;;;;;;11.64;100.00;102572.53;4998084;28;20026;-88
2023/09/04 03:00:57;;;;;;;11.85;8.30;;;;;;;11.65;100.00;102579.75;5010984;28;20042;-88
2023/09/04 03:03:22;;;;;;;15.90;9.35;;;;;;;11.57;100.00;102576.53;5011075;28;20077;-88
2023/09/04 03:05:48;;;;;;;11.80;8.50;;;;;;;11.55;100.00;102577.56;5017979;28;20150;-88
2023/09/04 03:08:14;;;;;;;14.10;8.85;;;;;;;11.56;100.00;102582.03;5013026;28;20396;-88
2023/09/04 03:10:40;;;;;;;14.40;9.93;;;;;;;11.56;100.00;102577.47;4997279;28;20091;-88
2023/09/04 03:13:05;;;;;;;10.63;8.75;;;;;;;11.53;100.00;102574.03;4995986;28;20457;-88
2023/09/04 03:15:32;;;;;;;12.32;8.93;;;;;;;11.50;100.00;102570.47;4997645;28;20027;-88
2023/09/04 03:17:57;;;;;;;16.80;9.45;;;;;;;11.44;100.00;102549.00;5013436;28;20476;-89
2023/09/04 03:20:23;;;;;;;14.80;9.65;;;;;;;11.49;100.00;102557.81;5014019;28;20052;-88
2023/09/04 03:22:52;;;;;;;13.98;9.35;;;;;;;11.47;100.00;102547.94;4997105;28;20037;-89
2023/09/04 03:25:17;;;;;;;11.23;7.97;;;;;;;11.41;100.00;102554.56;5026499;28;20052;-88
2023/09/04 03:27:43;;;;;;;11.70;8.95;;;;;;;11.45;100.00;102552.59;4993173;28;20515;-89
2023/09/04 03:30:10;;;;;;;14.75;9.20;;;;;;;11.42;100.00;102550.00;5012889;28;20156;-89
2023/09/04 03:32:36;;;;;;;12.82;8.18;;;;;;;11.37;100.00;102539.31;4997174;28;20176;-89
2023/09/04 03:35:02;;;;;;;12.32;8.35;;;;;;;11.35;100.00;102543.09;4982168;28;20485;-89
2023/09/04 03:37:29;;;;;;;14.20;8.10;;;;;;;11.30;100.00;102546.03;5005789;28;20029;-89
2023/09/04 03:40:14;;;;;;;11.85;8.25;;;;;;;11.28;100.00;102547.06;5013329;28;20037;-89
2023/09/04 03:42:40;;;;;;;12.75;8.63;;;;;;;11.33;100.00;102559.53;4996666;28;20439;-89
2023/09/04 03:45:06;;;;;;;12.75;8.27;;;;;;;11.26;100.00;102547.16;4997242;28;20053;-89
2023/09/04 03:47:32;;;;;;;14.45;7.97;;;;;;;11.29;100.00;102549.75;5012751;28;20038;-89
2023/09/04 03:49:57;;;;;;;13.32;8.68;;;;;;;11.23;100.00;102542.72;4997164;28;20036;-89
2023/09/04 03:52:23;;;;;;;13.00;9.52;;;;;;;11.27;100.00;102542.59;4996551;28;20033;-89
2023/09/04 03:54:48;;;;;;;15.82;10.20;;;;;;;11.30;100.00;102554.22;5013297;28;20029;-88
2023/09/04 03:57:13;;;;;;;15.25;9.52;;;;;;;11.25;100.00;102537.22;5012157;28;20037;-89
2023/09/04 03:59:39;;;;;;;18.38;9.80;;;;;;;11.29;100.00;102537.97;5012003;28;20423;-88
2023/09/04 04:02:04;;;;;;;17.33;10.25;;;;;;;11.32;100.00;102540.50;4996433;28;20091;-88
2023/09/04 04:04:29;;;;;;;16.60;10.13;;;;;;;11.25;100.00;102534.50;4997149;28;20040;-89
2023/09/04 04:06:55;;;;;;;15.15;9.98;;;;;;;11.31;100.00;102544.22;5012077;28;20037;-89
2023/09/04 04:09:21;;;;;;;16.13;10.75;;;;;;;11.19;100.00;102519.34;5029904;28;20033;-88
2023/09/04 04:11:46;;;;;;;22.98;12.48;;;;;;;11.28;100.00;102526.16;5029115;28;20022;-88
2023/09/04 04:14:12;;;;;;;21.35;12.35;;;;;;;11.27;100.00;102520.78;5006187;28;20038;-88
2023/09/04 04:16:37;;;;;;;15.95;10.90;;;;;;;11.34;100.00;102531.31;4976340;28;20030;-89
2023/09/04 04:19:03;;;;;;;18.73;12.18;;;;;;;11.32;100.00;102535.06;4992839;28;20041;-88
2023/09/04 04:21:28;;;;;;;19.27;11.38;;;;;;;11.31;100.00;102538.75;4992623;28;20293;-88
2023/09/04 04:23:53;;;;;;;17.13;10.95;;;;;;;11.21;100.00;102520.13;5009235;28;20073;-89
2023/09/04 04:26:19;;;;;;;17.00;10.95;;;;;;;11.24;100.00;102524.56;5011299;28;20416;-88
2023/09/04 04:28:44;;;;;;;19.63;11.23;;;;;;;11.31;100.00;102536.03;5010126;28;20033;-88
2023/09/04 04:31:10;;;;;;;15.60;11.43;;;;;;;11.28;100.00;102534.31;5011582;28;20484;-88
2023/09/04 04:33:36;;;;;;;18.10;11.43;;;;;;;11.23;100.00;102528.22;4994670;28;20026;-88
2023/09/04 04:36:03;;;;;;;21.05;12.80;;;;;;;11.26;100.00;102538.09;4995326;28;20033;-89
2023/09/04 04:38:29;;;;;;;20.02;11.57;;;;;;;11.21;100.00;102541.91;4981784;28;20037;-88
2023/09/04 04:40:56;;;;;;;16.75;12.50;;;;;;;11.14;100.00;102525.94;5028012;28;20030;-88
2023/09/04 04:43:21;;;;;;;17.20;11.38;;;;;;;11.18;100.00;102536.59;4998293;28;20373;-88
2023/09/04 04:45:48;;;;;;;17.10;11.88;;;;;;;11.19;100.00;102541.13;5015027;28;20166;-88
2023/09/04 04:48:14;;;;;;;19.10;12.63;;;;;;;11.18;100.00;102523.00;5014036;28;20608;-88
2023/09/04 04:50:40;;;;;;;19.58;13.50;;;;;;;11.18;100.00;102542.06;4998731;28;20057;-88
2023/09/04 04:53:07;;;;;;;19.45;12.02;;;;;;;11.15;100.00;102527.72;5004240;28;20061;-89
2023/09/04 04:55:32;;;;;;;17.52;11.80;;;;;;;11.17;100.00;102537.56;5011689;28;20111;-88
2023/09/04 04:57:59;;;;;;;17.73;11.77;;;;;;;11.16;100.00;102535.81;5012946;28;20036;-88
2023/09/04 05:00:24;;;;;;;19.17;11.68;;;;;;;11.11;100.00;102526.09;5038558;28;20032;-88
2023/09/04 05:02:49;;;;;;;16.92;12.00;;;;;;;11.13;100.00;102527.78;5051111;28;20060;-88
2023/09/04 05:05:16;;;;;;;15.50;10.50;;;;;;;11.13;100.00;102529.63;5015176;28;20164;-88
2023/09/04 05:07:42;;;;;;;17.17;10.93;;;;;;;11.07;100.00;102519.91;5025505;28;20026;-88
2023/09/04 05:10:10;;;;;;;16.58;10.75;;;;;;;11.06;100.00;102525.44;5013268;28;20182;-88
2023/09/04 05:12:36;;;;;;;17.88;11.90;;;;;;;11.11;100.00;102535.16;5014445;28;20064;-88
2023/09/04 05:15:01;;;;;;;20.20;12.07;;;;;;;11.09;100.00;102528.88;5015284;28;20457;-88
2023/09/04 05:17:27;;;;;;;16.50;11.27;;;;;;;11.17;100.00;102542.13;5014107;28;20029;-88
2023/09/04 05:19:53;;;;;;;18.80;12.18;;;;;;;11.16;100.00;102545.84;4991251;28;20021;-88
2023/09/04 05:22:18;;;;;;;16.75;11.48;;;;;;;11.11;100.00;102532.44;5010683;28;20025;-88
2023/09/04 05:24:43;;;;;;;13.52;11.05;;;;;;;11.20;100.00;102534.72;4998214;28;20556;-88
2023/09/04 05:27:09;;;;;;;15.80;11.18;;;;;;;11.26;100.00;102541.69;5016763;28;20441;-88
2023/09/04 05:29:34;;;;;;;17.55;11.40;;;;;;;11.24;100.00;102525.44;5024855;28;20132;-88
2023/09/04 05:31:59;;;;;;;15.30;10.88;;;;;;;11.32;100.00;102538.66;5013124;28;20083;-88
2023/09/04 05:34:25;;;;;;;17.08;12.10;;;;;;;11.24;100.00;102511.81;5030273;28;20079;-88
2023/09/04 05:36:51;;;;;;;15.98;11.30;;;;;;;11.31;100.00;102525.13;5030266;28;20021;-87
2023/09/04 05:39:16;;;;;;;18.77;12.18;;;;;;;11.39;100.00;102531.09;5013209;28;20508;-87
2023/09/04 05:41:42;;;;;;;18.70;12.13;;;;;;;11.41;100.00;102529.16;5005268;28;20040;-88
2023/09/04 05:44:08;;;;;;;19.05;12.70;;;;;;;11.43;100.00;102532.72;4998906;28;20140;-88
2023/09/04 05:46:33;;;;;;;18.15;11.98;;;;;;;11.37;100.00;102512.06;5023146;28;20034;-88
2023/09/04 05:48:59;;;;;;;19.23;12.23;;;;;;;11.53;100.00;102544.94;4998314;28;20497;-87
2023/09/04 05:51:25;;;;;;;16.83;11.70;;;;;;;11.58;100.00;102541.97;4995675;28;20120;-88
2023/09/04 05:53:51;;;;;;;17.02;11.75;;;;;;;11.58;100.00;102541.97;5028307;28;20025;-88
2023/09/04 05:56:17;;;;;;;21.65;11.77;;;;;;;11.61;100.00;102536.34;4999729;28;20038;-88
2023/09/04 05:58:47;;;;;;;19.42;11.77;;;;;;;11.67;100.00;102538.78;5010860;28;20025;-88
2023/09/04 06:01:13;;;;;;;22.40;14.30;;;;;;;11.65;100.00;102536.13;5011385;28;20056;-88
2023/09/04 06:03:40;;;;;;;20.83;13.68;;;;;;;11.75;100.00;102544.75;5030274;28;20044;-87
2023/09/04 06:06:05;;;;;;;27.30;13.73;;;;;;;11.80;100.00;102539.94;5022820;28;20457;-87
2023/09/04 06:08:32;;;;;;;21.52;13.95;;;;;;;11.91;100.00;102547.63;5027800;28;20113;-88
2023/09/04 06:10:58;;;;;;;21.63;14.32;;;;;;;11.94;100.00;102547.47;4995629;28;20120;-88
2023/09/04 06:13:23;;;;;;;18.63;13.35;;;;;;;11.96;100.00;102535.50;5028285;28;20099;-87
2023/09/04 06:15:52;;;;;;;21.88;12.85;;;;;;;12.05;100.00;102541.47;4997277;28;20049;-87
2023/09/04 06:18:19;;;;;;;20.60;13.73;;;;;;;12.10;100.00;102536.66;5012378;28;20065;-88
2023/09/04 06:20:45;;;;;;;18.75;13.02;;;;;;;12.11;100.00;102536.56;5019830;28;20315;-88
2023/09/04 06:23:10;;;;;;;19.95;13.68;;;;;;;12.25;100.00;102544.91;5013249;28;20034;-88
2023/09/04 06:25:39;;;;;;;19.77;13.60;;;;;;;12.29;100.00;102534.72;5015577;28;20055;-87
2023/09/04 06:28:05;;;;;;;24.52;16.42;;;;;;;12.32;100.00;102529.09;5014764;28;20029;-87
2023/09/04 06:30:31;;;;;;;28.70;17.25;;;;;;;12.49;100.00;102547.28;5032532;28;20033;-88
2023/09/04 06:32:56;;;;;;;24.63;16.67;;;;;;;12.55;100.00;102537.91;5018765;28;20500;-88
2023/09/04 06:35:22;;;;;;;24.30;15.60;;;;;;;12.61;100.00;102546.66;5032443;28;20037;-88
2023/09/04 06:37:47;;;;;;;20.10;14.38;;;;;;;12.62;100.00;102525.69;5028629;28;20465;-88
2023/09/04 06:40:13;;;;;;;20.98;14.98;;;;;;;12.76;100.00;102548.53;5028038;28;20045;-88
2023/09/04 06:42:38;;;;;;;32.63;16.98;;;;;;;12.82;100.00;102532.78;5013571;28;20025;-87
2023/09/04 06:45:04;;;;;;;26.77;17.85;;;;;;;12.91;100.00;102535.88;4996124;28;20512;-88
2023/09/04 06:47:29;;;;;;;29.45;17.67;;;;;;;12.97;100.00;102535.56;4998486;28;20053;-88
2023/09/04 06:49:55;;;;;;;23.52;16.92;;;;;;;13.06;100.00;102530.56;5029299;28;20109;-90
2023/09/04 06:52:20;;;;;;;31.08;18.63;;;;;;;13.18;100.00;102540.78;5011301;28;20029;-88
2023/09/04 06:54:47;;;;;;;28.60;20.05;;;;;;;13.23;100.00;102530.50;5016049;28;20025;-88
2023/09/04 06:57:12;;;;;;;28.50;19.45;;;;;;;13.32;100.00;102527.25;5000950;28;20675;-88
2023/09/04 06:59:38;;;;;;;31.13;19.75;;;;;;;13.38;100.00;102517.81;5014557;28;20517;-88
2023/09/04 07:02:04;;;;;;;32.53;20.48;;;;;;;13.52;100.00;102528.84;4999216;28;20073;-88
2023/09/04 07:04:29;;;;;;;32.95;21.27;;;;;;;13.61;100.00;102530.16;5011825;28;20050;-89
2023/09/04 07:06:54;;;;;;;35.10;22.30;;;;;;;13.65;100.00;102521.69;4998837;28;20034;-88
2023/09/04 07:09:21;;;;;;;28.35;19.67;;;;;;;13.79;100.00;102529.09;4991461;28;20064;-88
2023/09/04 07:11:46;;;;;;;30.70;18.92;;;;;;;13.91;100.00;102531.09;5011492;28;20042;-88
2023/09/04 07:14:12;;;;;;;28.60;18.17;;;;;;;13.98;100.00;102520.66;5023138;28;20033;-88
2023/09/04 07:16:38;;;;;;;30.90;19.75;;;;;;;14.07;100.00;102516.50;4998808;28;20071;-88
2023/09/04 07:19:04;;;;;;;30.17;20.75;;;;;;;14.22;100.00;102526.50;4998808;28;20553;-88
2023/09/04 07:21:29;;;;;;;27.70;18.40;;;;;;;14.33;100.00;102518.53;5014825;28;20216;-88
2023/09/04 07:23:55;;;;;;;30.42;19.73;;;;;;;14.36;100.00;102510.13;5022069;28;20021;-88
2023/09/04 07:26:20;;;;;;;30.20;20.30;;;;;;;14.52;100.00;102512.81;5028385;28;20038;-88
2023/09/04 07:28:45;;;;;;;27.08;19.65;;;;;;;14.63;100.00;102520.38;5014669;28;20429;-88
2023/09/04 07:31:19;;;;;;;31.33;19.58;;;;;;;14.73;100.00;102522.41;4998231;28;20037;-88
2023/09/04 07:33:47;;;;;;;26.88;18.58;;;;;;;14.89;100.00;102533.31;5030868;28;20401;-87
2023/09/04 07:36:12;;;;;;;27.10;19.02;;;;;;;14.88;100.00;102498.66;5015682;28;20033;-88
2023/09/04 07:38:38;;;;;;;29.52;19.52;;;;;;;15.05;100.00;102520.38;5014201;28;20033;-87
2023/09/04 07:41:04;;;;;;;28.20;18.85;;;;;;;15.30;100.00;102527.91;5013539;28;20068;-87
2023/09/04 07:43:33;;;;;;;28.17;18.55;;;;;;;15.55;100.00;102518.03;5026667;28;20045;-87
2023/09/04 07:45:58;;;;;;;24.33;16.90;;;;;;;15.69;100.00;102522.63;5012415;28;20037;-87
2023/09/04 07:48:25;;;;;;;26.45;18.35;;;;;;;15.83;100.00;102525.31;5010395;28;20030;-87
2023/09/04 07:50:52;;;;;;;26.98;18.02;;;;;;;16.02;100.00;102527.69;5001019;28;20044;-87
2023/09/04 07:53:18;;;;;;;27.40;17.30;;;;;;;16.19;100.00;102523.78;5020723;28;20485;-87
2023/09/04 07:55:45;;;;;;;22.67;16.52;;;;;;;16.29;100.00;102519.41;5010062;28;20038;-87
2023/09/04 07:58:11;;;;;;;22.60;15.25;;;;;;;16.40;100.00;102521.41;4979154;28;20042;-87
2023/09/04 08:00:36;;;;;;;24.17;15.75;;;;;;;16.51;100.00;102516.91;4994351;28;20069;-87
2023/09/04 08:03:03;;;;;;;19.63;15.20;;;;;;;16.56;100.00;102503.72;4992477;28;20044;-86
2023/09/04 08:05:28;;;;;;;20.52;15.07;;;;;;;16.66;100.00;102503.94;5009680;28;20038;-87
2023/09/04 08:07:54;;;;;;;22.98;14.63;;;;;;;16.76;100.00;102512.44;5009558;28;20025;-86
2023/09/04 08:10:19;;;;;;;23.25;14.98;;;;;;;16.88;100.00;102511.56;4993421;28;20040;-86
2023/09/04 08:12:44;;;;;;;19.02;15.18;;;;;;;17.07;100.00;102514.72;4979369;28;20045;-86
2023/09/04 08:15:10;;;;;;;20.23;14.95;;;;;;;17.24;100.00;102515.34;5008314;28;20041;-86
2023/09/04 08:17:36;;;;;;;19.55;14.32;;;;;;;17.38;99.45;102511.56;4993015;28;20038;-86
2023/09/04 08:20:01;;;;;;;20.55;14.57;;;;;;;17.46;98.74;102510.00;5009623;28;20079;-86
2023/09/04 08:22:27;;;;;;;17.20;13.50;;;;;;;17.58;96.69;102521.97;4996901;28;20025;-86
2023/09/04 08:24:55;;;;;;;19.27;13.40;;;;;;;17.65;95.43;102508.63;5013089;28;20513;-87
2023/09/04 08:27:21;;;;;;;19.33;13.60;;;;;;;17.80;97.47;102513.84;4997472;28;20172;-86
2023/09/04 08:29:46;;;;;;;22.00;13.65;;;;;;;17.88;94.86;102515.16;5013428;28;20475;-87
2023/09/04 08:32:11;;;;;;;21.40;13.80;;;;;;;18.01;95.86;102511.34;4996711;28;20042;-87
2023/09/04 08:34:37;;;;;;;21.00;12.32;;;;;;;18.06;93.39;102511.00;5013749;28;20052;-86
2023/09/04 08:37:03;;;;;;;16.98;10.60;;;;;;;18.21;93.48;102512.53;5012091;28;20755;-85
2023/09/04 08:39:28;;;;;;;19.33;12.05;;;;;;;18.38;96.15;102502.97;5010600;28;20036;-87
2023/09/04 08:41:55;;;;;;;18.88;11.60;;;;;;;18.48;91.38;102516.88;5029425;28;20046;-86
2023/09/04 08:44:20;;;;;;;17.23;11.82;;;;;;;18.48;89.14;102501.22;5013338;28;20113;-86
2023/09/04 08:46:49;;;;;;;15.07;11.80;;;;;;;18.63;91.54;102506.50;5031066;28;20650;-86
2023/09/04 08:49:16;;;;;;;18.05;11.85;;;;;;;18.64;91.18;102500.84;5013717;28;20063;-86
2023/09/04 08:51:43;;;;;;;17.30;13.00;;;;;;;18.73;90.58;102515.81;5010482;28;20034;-87
2023/09/04 08:54:09;;;;;;;18.40;12.80;;;;;;;18.75;89.79;102508.31;5011346;28;20042;-87
2023/09/04 08:56:35;;;;;;;17.95;12.65;;;;;;;18.85;91.24;102517.59;4996987;28;20033;-86
2023/09/04 08:59:01;;;;;;;15.38;11.82;;;;;;;19.00;87.18;102518.22;5006054;28;20125;-86
2023/09/04 09:01:30;;;;;;;19.17;11.02;;;;;;;19.17;87.95;102498.41;4979506;28;20120;-86
2023/09/04 09:03:57;;;;;;;14.38;10.68;;;;;;;19.37;87.32;102507.78;5014248;28;20037;-87
2023/09/04 09:06:23;;;;;;;14.23;9.65;;;;;;;19.61;84.45;102507.66;5014636;28;20060;-86
2023/09/04 09:08:51;;;;;;;14.23;9.63;;;;;;;19.93;87.44;102499.38;4999218;28;20025;-86
2023/09/04 09:11:17;;;;;;;9.70;8.00;;;;;;;20.03;84.16;102493.94;4978468;28;20053;-85
2023/09/04 09:13:44;;;;;;;10.38;8.45;;;;;;;20.26;86.35;102492.81;4984166;28;20044;-86
2023/09/04 09:16:09;;;;;;;10.90;7.88;;;;;;;20.67;89.35;102488.31;5013250;28;20384;-85
2023/09/04 09:18:36;;;;;;;8.52;6.95;;;;;;;20.81;78.05;102495.38;4997179;28;20029;-85
2023/09/04 09:21:21;;;;;;;9.18;6.72;;;;;;;20.97;79.23;102504.03;5010874;28;20378;-87
2023/09/04 09:23:47;;;;;;;7.25;6.05;;;;;;;21.21;80.13;102495.41;5004116;28;20030;-85
2023/09/04 09:26:14;;;;;;;8.77;5.57;;;;;;;21.47;75.65;102490.28;4993102;28;20485;-86
2023/09/04 09:28:42;;;;;;;8.40;5.03;;;;;;;21.74;78.48;102497.03;5018117;28;20041;-86
2023/09/04 09:31:08;;;;;;;7.50;5.57;;;;;;;21.84;76.16;102496.03;5030618;28;20035;-86
2023/09/04 09:33:34;;;;;;;9.30;5.63;;;;;;;22.08;78.57;102503.91;5034031;28;20486;-85
2023/09/04 09:35:59;;;;;;;6.55;5.95;;;;;;;22.08;74.82;102500.25;5000167;28;20030;-87
2023/09/04 09:38:25;;;;;;;10.20;5.60;;;;;;;22.25;73.74;102496.78;4999343;28;20090;-86
2023/09/04 09:40:50;;;;;;;6.57;5.40;;;;;;;22.75;78.30;102502.06;4999352;28;20025;-85
2023/09/04 09:43:16;;;;;;;8.73;5.93;;;;;;;22.99;68.99;102497.94;5010551;28;20048;-86
2023/09/04 09:45:41;;;;;;;6.85;5.18;;;;;;;23.30;71.76;102493.84;5033937;28;20126;-86
2023/09/04 09:48:07;;;;;;;7.30;5.40;;;;;;;23.51;68.96;102488.03;4999114;28;20041;-86
2023/09/04 09:50:36;;;;;;;10.23;5.53;;;;;;;23.68;68.05;102486.34;4999245;28;20032;-86
2023/09/04 09:53:02;;;;;;;7.50;5.53;;;;;;;24.05;65.47;102491.75;5015025;28;20044;-86
2023/09/04 09:55:30;;;;;;;7.90;5.57;;;;;;;24.46;68.35;102488.47;5015502;28;20132;-86
2023/09/04 09:57:57;;;;;;;5.47;4.97;;;;;;;24.90;67.97;102476.25;4999073;28;20033;-87
2023/09/04 10:00:24;;;;;;;8.18;5.40;;;;;;;25.09;63.28;102482.66;5032718;28;20041;-87
2023/09/04 10:02:50;;;;;;;6.03;5.30;;;;;;;25.22;59.03;102469.09;5015895;28;20037;-86
2023/09/04 10:05:16;;;;;;;8.13;4.57;;;;;;;25.31;60.69;102467.22;4982211;28;20055;-85
2023/09/04 10:07:46;;;;;;;5.30;4.63;;;;;;;25.41;62.54;102466.06;5015171;28;20029;-85
2023/09/04 10:10:13;;;;;;;8.75;4.90;;;;;;;25.60;59.65;102464.00;5028130;28;20128;-85
2023/09/04 10:12:48;;;;;;;8.32;4.25;;;;;;;25.89;65.20;102452.44;5011455;28;20041;-86
2023/09/04 10:15:28;;;;;;;8.55;4.75;;;;;;;26.09;61.27;102461.31;5012187;28;20477;-86
2023/09/04 10:18:06;;;;;;;8.13;5.00;;;;;;;26.30;63.72;102461.69;5026854;28;20033;-86
2023/09/04 10:20:33;;;;;;;6.43;4.82;;;;;;;26.36;56.46;102460.97;5030009;28;20388;-86
2023/09/04 10:23:14;;;;;;;6.38;5.07;;;;;;;26.54;61.71;102468.31;5011548;28;20041;-85
2023/09/04 10:25:46;;;;;;;6.07;4.50;;;;;;;26.73;57.05;102461.47;5013358;28;20128;-85
2023/09/04 10:28:21;;;;;;;7.90;5.03;;;;;;;26.85;59.66;102463.69;5013852;28;20034;-86
2023/09/04 10:30:52;;;;;;;7.47;4.63;;;;;;;26.91;58.06;102462.13;4997512;28;20703;-86
2023/09/04 10:33:19;;;;;;;5.75;4.30;;;;;;;27.17;59.06;102459.06;5011002;28;20034;-86
2023/09/04 10:35:44;;;;;;;6.00;4.88;;;;;;;27.10;54.95;102455.28;5024047;28;20868;-87
2023/09/04 10:38:10;;;;;;;5.15;4.10;;;;;;;26.92;55.17;102444.28;5003123;28;20037;-87
2023/09/04 10:40:37;;;;;;;5.72;4.47;;;;;;;26.89;54.80;102445.50;5012851;28;20026;-86
2023/09/04 10:43:05;;;;;;;6.55;4.65;;;;;;;26.69;52.05;102438.59;5020770;28;20037;-86
2023/09/04 10:45:32;;;;;;;6.60;4.38;;;;;;;26.54;53.94;102435.69;5010483;28;20033;-86
2023/09/04 10:47:57;;;;;;;7.63;4.43;;;;;;;26.42;54.89;102423.09;5011316;28;20034;-86
2023/09/04 10:50:29;;;;;;;5.65;4.47;;;;;;;26.51;56.91;102435.16;5010309;28;20155;-86
2023/09/04 10:52:58;;;;;;;8.98;4.07;;;;;;;26.44;55.10;102430.28;4998200;28;20041;-85
2023/09/04 10:55:26;;;;;;;4.45;4.03;;;;;;;26.34;52.27;102435.13;4996317;28;20105;-86
2023/09/04 10:58:00;;;;;;;5.15;3.92;;;;;;;26.34;54.80;102431.47;5032347;28;20036;-86
2023/09/04 11:00:39;;;;;;;4.93;3.97;;;;;;;26.61;56.05;102425.53;5012703;28;20144;-86
2023/09/04 11:03:23;;;;;;;4.68;3.80;;;;;;;26.76;55.20;102419.19;5011981;28;20397;-87
2023/09/04 11:06:04;;;;;;;5.88;3.25;;;;;;;26.91;56.36;102423.00;4996479;28;20095;-87
2023/09/04 11:08:31;;;;;;;4.73;3.00;;;;;;;26.87;52.28;102416.03;5019486;28;20686;-86